createdAt,value
2022-10-05T00:08:46.758Z,8.97
2022-10-05T00:12:56.064Z,8.99
2022-10-05T00:16:51.576Z,8.99
2022-10-05T00:21:01.761Z,8.93
2022-10-05T00:24:58.230Z,8.90
2022-10-05T00:29:29.750Z,8.87
2022-10-05T00:33:14.904Z,8.83
2022-10-05T00:37:18.114Z,8.80
2022-10-05T00:41:55.607Z,8.79
2022-10-05T00:50:28.953Z,8.73
2022-10-05T00:54:33.681Z,8.70
2022-10-05T00:58:41.294Z,8.66
2022-10-05T01:02:42.012Z,8.62
2022-10-05T01:06:51.540Z,8.59
2022-10-05T01:10:49.671Z,8.52
2022-10-05T01:15:08.708Z,8.49
2022-10-05T01:18:41.478Z,8.49
2022-10-05T01:21:58.089Z,8.51
2022-10-05T01:25:26.203Z,8.53
2022-10-05T01:29:03.050Z,8.55
2022-10-05T01:32:32.499Z,8.57
2022-10-05T01:36:44.969Z,8.62
2022-10-05T01:43:28.265Z,8.69
2022-10-05T01:46:37.680Z,8.70
2022-10-05T01:51:05.140Z,8.69
2022-10-05T01:55:03.987Z,8.64
2022-10-05T01:59:05.310Z,8.60
2022-10-05T02:02:42.049Z,8.54
2022-10-05T02:07:09.589Z,8.50
2022-10-05T02:15:41.241Z,8.42
2022-10-05T02:19:39.439Z,8.43
2022-10-05T02:23:20.086Z,8.44
2022-10-05T02:26:41.302Z,8.46
2022-10-05T02:30:43.658Z,8.47
2022-10-05T02:33:53.375Z,8.45
2022-10-05T02:37:20.967Z,8.45
2022-10-05T02:45:36.361Z,8.43
2022-10-05T02:49:25.713Z,8.46
2022-10-05T02:53:02.206Z,8.46
2022-10-05T02:56:45.508Z,8.49
2022-10-05T03:00:35.522Z,8.60
2022-10-05T03:04:24.939Z,8.65
2022-10-05T03:07:59.573Z,8.69
2022-10-05T03:11:51.482Z,8.70
2022-10-05T03:15:54.156Z,8.69
2022-10-05T03:19:46.408Z,8.68
2022-10-05T03:23:57.026Z,8.68
2022-10-05T03:27:34.484Z,8.67
2022-10-05T03:31:41.168Z,8.65
2022-10-05T03:35:31.062Z,8.61
2022-10-05T03:39:02.543Z,8.60
2022-10-05T03:43:15.331Z,8.60
2022-10-05T03:47:17.552Z,8.60
2022-10-05T03:50:47.699Z,8.60
2022-10-05T03:54:47.741Z,8.58
2022-10-05T03:58:43.732Z,8.60
2022-10-05T04:03:15.694Z,8.59
2022-10-05T04:07:39.716Z,8.58
2022-10-05T04:12:36.059Z,8.59
2022-10-05T04:20:58.968Z,8.58
2022-10-05T04:34:18.388Z,8.51
2022-10-05T04:39:06.827Z,8.48
2022-10-05T04:42:55.759Z,8.50
2022-10-05T04:47:02.997Z,8.52
2022-10-05T04:50:49.257Z,8.53
2022-10-05T04:54:56.937Z,8.54
2022-10-05T05:03:41.845Z,8.59
2022-10-05T05:07:20.716Z,8.59
2022-10-05T05:11:34.174Z,8.59
2022-10-05T05:14:55.856Z,8.58
2022-10-05T05:19:13.073Z,8.60
2022-10-05T05:23:27.399Z,8.60
2022-10-05T05:27:23.810Z,8.62
2022-10-05T05:40:54.565Z,8.62
2022-10-05T05:42:56.148Z,8.59
2022-10-05T05:44:29.914Z,8.65
2022-10-05T05:47:56.082Z,8.67
2022-10-05T05:51:52.050Z,8.70
2022-10-05T05:55:11.716Z,8.77
2022-10-05T05:59:19.980Z,8.81
2022-10-05T06:02:51.530Z,8.80
2022-10-05T06:06:17.808Z,8.78
2022-10-05T06:09:17.001Z,8.77
2022-10-05T06:12:38.061Z,8.73
2022-10-05T06:16:05.012Z,8.70
2022-10-05T06:19:05.489Z,8.71
2022-10-05T06:22:21.626Z,8.73
2022-10-05T06:25:25.231Z,8.75
2022-10-05T06:28:40.694Z,8.79
2022-10-05T06:31:15.392Z,8.89
2022-10-05T06:34:04.567Z,8.96
2022-10-05T06:37:03.027Z,9.07
2022-10-05T06:39:50.706Z,9.14
2022-10-05T06:43:17.620Z,9.20
2022-10-05T06:46:44.485Z,9.30
2022-10-05T06:50:32.773Z,9.43
2022-10-05T06:54:10.434Z,9.55
2022-10-05T06:57:42.444Z,9.63
2022-10-05T07:00:56.433Z,9.66
2022-10-05T07:04:46.824Z,9.69
2022-10-05T07:08:47.528Z,9.70
2022-10-05T07:12:06.641Z,9.72
2022-10-05T07:15:44.642Z,9.79
2022-10-05T07:19:55.182Z,9.96
2022-10-05T07:24:00.035Z,10.14
2022-10-05T07:27:59.917Z,10.31
2022-10-05T07:31:45.946Z,10.46
2022-10-05T07:35:40.079Z,10.50
2022-10-05T07:39:17.006Z,10.58
2022-10-05T07:42:52.788Z,10.69
2022-10-05T07:50:15.964Z,10.99
2022-10-05T07:53:49.791Z,11.13
2022-10-05T07:57:27.372Z,11.25
2022-10-05T08:00:40.859Z,11.35
2022-10-05T08:04:14.698Z,11.49
2022-10-05T08:08:22.127Z,11.66
2022-10-05T08:11:41.534Z,11.88
2022-10-05T08:15:33.009Z,12.07
2022-10-05T08:18:51.059Z,12.19
2022-10-05T08:23:25.154Z,12.25
2022-10-05T08:27:13.332Z,12.29
2022-10-05T08:30:58.123Z,12.56
2022-10-05T08:35:16.832Z,12.90
2022-10-05T08:39:18.978Z,13.08
2022-10-05T08:43:45.438Z,13.07
2022-10-05T08:51:24.676Z,13.04
2022-10-05T08:55:18.296Z,13.02
2022-10-05T08:58:58.914Z,13.01
2022-10-05T09:03:01.820Z,13.00
2022-10-05T09:07:30.497Z,13.05
2022-10-05T09:11:59.497Z,13.26
2022-10-05T09:15:49.094Z,13.68
2022-10-05T09:19:55.524Z,14.18
2022-10-05T09:28:33.118Z,14.73
2022-10-05T09:36:18.320Z,15.30
2022-10-05T09:40:09.223Z,15.35
2022-10-05T09:47:26.141Z,15.26
2022-10-05T09:51:15.541Z,15.27
2022-10-05T09:55:17.913Z,15.31
2022-10-05T09:59:40.281Z,15.51
2022-10-05T10:03:07.690Z,15.73
2022-10-05T10:07:01.786Z,16.16
2022-10-05T10:11:04.768Z,16.33
2022-10-05T10:15:08.403Z,16.49
2022-10-05T10:19:04.027Z,16.78
2022-10-05T10:23:19.938Z,17.08
2022-10-05T10:27:41.488Z,17.03
2022-10-05T10:31:25.007Z,17.13
2022-10-05T10:35:13.593Z,17.40
2022-10-05T10:39:22.498Z,17.82
2022-10-05T10:43:03.537Z,18.20
2022-10-05T10:46:23.034Z,18.39
2022-10-05T10:50:20.593Z,18.52
2022-10-05T10:54:03.263Z,18.40
2022-10-05T10:57:38.437Z,18.35
2022-10-05T11:01:26.568Z,18.82
2022-10-05T11:05:11.161Z,19.27
2022-10-05T11:13:32.034Z,19.33
2022-10-05T11:17:46.315Z,19.19
2022-10-05T11:21:03.030Z,19.31
2022-10-05T11:25:00.406Z,19.32
2022-10-05T11:28:37.865Z,19.14
2022-10-05T11:36:27.530Z,19.37
2022-10-05T11:44:18.082Z,19.25
2022-10-05T11:52:07.152Z,18.65
2022-10-05T11:56:00.218Z,18.68
2022-10-05T12:03:44.125Z,18.62
2022-10-05T12:07:21.992Z,18.65
2022-10-05T12:11:41.903Z,18.76
2022-10-05T12:15:10.595Z,18.81
2022-10-05T12:23:34.934Z,18.47
2022-10-05T12:32:44.141Z,18.15
2022-10-05T12:36:09.971Z,18.16
2022-10-05T12:40:04.987Z,18.14
2022-10-05T12:43:48.688Z,18.06
2022-10-05T12:47:14.588Z,18.03
2022-10-05T12:51:27.737Z,17.97
2022-10-05T12:55:27.960Z,17.94
2022-10-05T12:59:45.953Z,17.96
2022-10-05T13:33:39.804Z,17.73
2022-10-05T13:37:17.416Z,17.75
2022-10-05T13:40:52.876Z,17.73
2022-10-05T13:44:48.909Z,17.73
2022-10-05T13:48:18.631Z,17.75
2022-10-05T13:51:49.944Z,17.79
2022-10-05T13:55:39.803Z,17.89
2022-10-05T13:59:32.655Z,18.04
2022-10-05T14:02:59.843Z,18.22
2022-10-05T14:06:10.099Z,18.31
2022-10-05T14:09:26.007Z,18.50
2022-10-05T14:12:34.517Z,18.61
2022-10-05T14:15:53.207Z,18.81
2022-10-05T14:18:36.667Z,19.22
2022-10-05T14:22:20.839Z,19.25
2022-10-05T14:25:57.896Z,19.22
2022-10-05T14:29:06.333Z,19.29
2022-10-05T14:33:19.100Z,18.85
2022-10-05T14:37:01.198Z,18.26
2022-10-05T14:39:58.888Z,17.92
2022-10-05T14:43:07.966Z,17.76
2022-10-05T14:46:14.321Z,17.61
2022-10-05T14:49:14.082Z,17.46
2022-10-05T14:52:30.514Z,17.33
2022-10-05T14:56:07.637Z,17.20
2022-10-05T14:59:26.998Z,17.08
2022-10-05T15:02:45.602Z,16.97
2022-10-05T15:06:11.228Z,16.91
2022-10-05T15:09:17.070Z,16.93
2022-10-05T15:12:19.592Z,16.98
2022-10-05T15:15:11.683Z,17.01
2022-10-05T15:18:43.707Z,17.04
2022-10-05T15:22:04.261Z,16.99
2022-10-05T15:25:36.741Z,16.94
2022-10-05T15:28:54.500Z,16.86
2022-10-05T15:32:26.930Z,16.78
2022-10-05T15:35:17.438Z,16.71
2022-10-05T15:48:09.762Z,16.51
2022-10-05T15:51:50.500Z,16.44
2022-10-05T15:54:46.681Z,16.35
2022-10-05T15:57:56.477Z,16.31
2022-10-05T16:00:58.523Z,16.25
2022-10-05T16:04:12.840Z,16.18
2022-10-05T16:08:07.401Z,16.13
2022-10-05T16:11:19.715Z,16.01
2022-10-05T16:18:03.928Z,15.80
2022-10-05T16:21:59.160Z,15.68
2022-10-05T16:25:40.848Z,15.60
2022-10-05T16:29:13.755Z,15.49
2022-10-05T16:33:07.468Z,15.41
2022-10-05T16:36:19.026Z,15.35
2022-10-05T16:39:23.042Z,15.34
2022-10-05T16:42:38.568Z,15.29
2022-10-05T16:46:43.518Z,15.22
2022-10-05T16:50:27.238Z,15.09
2022-10-05T17:04:09.671Z,14.76
2022-10-05T17:08:41.903Z,14.71
2022-10-05T17:13:06.985Z,14.65
2022-10-05T17:17:16.124Z,14.60
2022-10-05T17:27:41.393Z,14.48
2022-10-05T17:31:06.484Z,14.44
2022-10-05T17:34:57.052Z,14.36
2022-10-05T17:37:44.122Z,14.32
2022-10-05T17:41:17.222Z,14.28
2022-10-05T17:44:42.016Z,14.24
2022-10-05T17:48:06.527Z,14.24
2022-10-05T17:51:21.777Z,14.19
2022-10-05T17:54:12.646Z,14.11
2022-10-05T17:56:47.682Z,14.06
2022-10-05T17:59:46.269Z,14.00
2022-10-05T18:02:31.478Z,13.91
2022-10-05T18:05:04.923Z,13.87
2022-10-05T18:08:28.937Z,13.82
2022-10-05T18:11:35.033Z,13.79
2022-10-05T18:15:03.357Z,13.78
2022-10-05T18:17:50.424Z,13.77
2022-10-05T18:20:31.973Z,13.76
2022-10-05T18:23:09.878Z,13.76
2022-10-05T18:26:27.986Z,13.72
2022-10-05T18:29:39.436Z,13.71
2022-10-05T18:32:43.766Z,13.69
2022-10-05T18:35:39.673Z,13.66
2022-10-05T18:38:31.488Z,13.64
2022-10-05T18:41:23.591Z,13.61
2022-10-05T18:44:15.894Z,13.60
2022-10-05T18:47:15.479Z,13.57
2022-10-05T18:50:02.897Z,13.57
2022-10-05T18:53:02.682Z,13.56
2022-10-05T18:55:40.172Z,13.54
2022-10-05T18:59:12.774Z,13.55
2022-10-05T19:02:13.146Z,13.55
2022-10-05T19:05:47.964Z,13.56
2022-10-05T19:08:51.464Z,13.53
2022-10-05T19:12:16.186Z,13.50
2022-10-05T19:15:06.002Z,13.49
2022-10-05T19:18:13.568Z,13.48
2022-10-05T19:21:15.778Z,13.45
2022-10-05T19:24:45.474Z,13.41
2022-10-05T19:27:19.995Z,13.37
2022-10-05T19:30:18.203Z,13.36
2022-10-05T19:33:09.568Z,13.35
2022-10-05T19:36:14.155Z,13.33
2022-10-05T19:38:58.788Z,13.33
2022-10-05T19:42:04.385Z,13.36
2022-10-05T19:45:25.303Z,13.36
2022-10-05T19:47:55.392Z,13.32
2022-10-05T19:50:39.492Z,13.27
2022-10-05T19:53:45.433Z,13.26
2022-10-05T19:56:41.469Z,13.25
2022-10-05T19:59:40.102Z,13.27
2022-10-05T20:02:27.449Z,13.28
2022-10-05T20:05:09.580Z,13.26
2022-10-05T20:07:37.695Z,13.25
2022-10-05T20:10:31.673Z,13.23
2022-10-05T20:13:08.100Z,13.20
2022-10-05T20:16:16.872Z,13.20
2022-10-05T20:19:07.024Z,13.23
2022-10-05T20:22:28.171Z,13.22
2022-10-05T20:25:01.691Z,13.24
2022-10-05T20:28:21.175Z,13.28
2022-10-05T20:30:49.788Z,13.34
2022-10-05T20:33:29.253Z,13.37
2022-10-05T20:36:03.344Z,13.39
2022-10-05T20:38:31.600Z,13.40
2022-10-05T20:41:16.403Z,13.43
2022-10-05T20:43:55.955Z,13.46
2022-10-05T20:46:25.791Z,13.47
2022-10-05T20:49:02.903Z,13.47
2022-10-05T20:51:49.539Z,13.46
2022-10-05T20:54:38.712Z,13.46
2022-10-05T20:57:22.201Z,13.49
2022-10-05T21:00:01.683Z,13.53
2022-10-05T21:02:56.365Z,13.59
2022-10-05T21:05:38.791Z,13.64
2022-10-05T21:08:12.372Z,13.68
2022-10-05T21:11:17.144Z,13.73
2022-10-05T21:13:55.144Z,13.78
2022-10-05T21:16:33.755Z,13.80
2022-10-05T21:19:21.578Z,13.80
2022-10-05T21:21:51.809Z,13.81
2022-10-05T21:24:45.357Z,13.84
2022-10-05T21:27:18.925Z,13.87
2022-10-05T21:30:09.961Z,13.89
2022-10-05T21:32:49.802Z,13.93
2022-10-05T21:35:54.144Z,13.93
2022-10-05T21:38:21.427Z,13.94
2022-10-05T21:40:48.519Z,13.94
2022-10-05T21:43:19.604Z,13.95
2022-10-05T21:45:47.535Z,13.96
2022-10-05T21:48:18.877Z,13.94
2022-10-05T21:50:51.819Z,13.93
2022-10-05T21:53:39.156Z,13.94
2022-10-05T21:56:17.379Z,13.94
2022-10-05T21:58:47.331Z,13.97
2022-10-05T22:01:20.116Z,14.01
2022-10-05T22:04:04.411Z,14.07
2022-10-05T22:06:50.951Z,14.10
2022-10-05T22:09:25.026Z,14.12
2022-10-05T22:12:04.606Z,14.15
2022-10-05T22:14:53.823Z,14.19
2022-10-05T22:17:32.283Z,14.25
2022-10-05T22:20:06.944Z,14.31
2022-10-05T22:23:20.981Z,14.45
2022-10-05T22:25:57.316Z,14.48
2022-10-05T22:28:43.708Z,14.49
2022-10-05T22:31:26.209Z,14.50
2022-10-05T22:34:05.432Z,14.49
2022-10-05T22:36:55.787Z,14.51
2022-10-05T22:39:23.235Z,14.53
2022-10-05T22:42:05.335Z,14.51
2022-10-05T22:44:38.541Z,14.53
2022-10-05T22:47:05.994Z,14.55
2022-10-05T22:49:52.937Z,14.62
2022-10-05T22:52:49.270Z,14.64
2022-10-05T22:55:22.702Z,14.62
2022-10-05T22:58:00.145Z,14.61
2022-10-05T23:00:56.844Z,14.59
2022-10-05T23:03:25.389Z,14.59
2022-10-05T23:06:29.270Z,14.63
2022-10-05T23:08:56.955Z,14.66
2022-10-05T23:11:31.540Z,14.66
2022-10-05T23:14:02.421Z,14.64
2022-10-05T23:16:41.078Z,14.61
2022-10-05T23:19:08.342Z,14.60
2022-10-05T23:22:01.463Z,14.62
2022-10-05T23:24:32.542Z,14.62
2022-10-05T23:27:09.544Z,14.63
2022-10-05T23:29:50.283Z,14.60
2022-10-05T23:32:44.897Z,14.60
2022-10-05T23:35:24.719Z,14.61
2022-10-05T23:37:54.913Z,14.60
2022-10-05T23:40:27.376Z,14.58
2022-10-05T23:43:25.273Z,14.55
2022-10-05T23:46:39.767Z,14.49
2022-10-05T23:49:08.395Z,14.46
2022-10-05T23:51:36.352Z,14.41
2022-10-05T23:54:07.411Z,14.39
2022-10-05T23:56:45.558Z,14.36
2022-10-05T23:59:21.375Z,14.35
